createdAt,value
2022-08-30T00:00:16.763Z,2.20
2022-08-30T00:01:16.751Z,2.10
2022-08-30T00:02:16.760Z,2.40
2022-08-30T00:03:17.094Z,2.20
2022-08-30T00:04:16.704Z,2.20
2022-08-30T00:05:16.683Z,2.00
2022-08-30T00:06:16.694Z,2.00
2022-08-30T00:07:16.664Z,2.10
2022-08-30T00:08:16.653Z,1.90
2022-08-30T00:09:16.651Z,2.60
2022-08-30T00:10:16.632Z,3.30
2022-08-30T00:11:16.621Z,2.20
2022-08-30T00:12:16.603Z,2.50
2022-08-30T00:13:16.737Z,2.20
2022-08-30T00:14:16.583Z,2.00
2022-08-30T00:15:16.553Z,2.00
2022-08-30T00:16:16.622Z,2.20
2022-08-30T00:17:16.534Z,1.90
2022-08-30T00:18:16.534Z,2.00
2022-08-30T00:19:16.504Z,1.90
2022-08-30T00:20:16.504Z,2.00
2022-08-30T00:21:16.492Z,2.20
2022-08-30T00:22:16.471Z,2.20
2022-08-30T00:23:16.599Z,2.00
2022-08-30T00:24:16.449Z,2.30
2022-08-30T00:25:16.432Z,2.50
2022-08-30T00:26:16.431Z,2.10
2022-08-30T00:27:16.421Z,2.10
2022-08-30T00:28:16.399Z,2.30
2022-08-30T00:29:16.372Z,2.20
2022-08-30T00:30:16.371Z,2.30
2022-08-30T00:31:16.417Z,2.40
2022-08-30T00:32:16.344Z,2.20
2022-08-30T00:33:16.460Z,2.50
2022-08-30T00:34:16.320Z,2.50
2022-08-30T00:35:16.298Z,2.10
2022-08-30T00:36:16.299Z,2.10
2022-08-30T00:37:16.279Z,2.10
2022-08-30T00:38:16.271Z,2.10
2022-08-30T00:39:16.250Z,2.00
2022-08-30T00:40:16.261Z,1.90
2022-08-30T00:41:16.231Z,2.30
2022-08-30T00:42:16.212Z,2.10
2022-08-30T00:43:16.413Z,2.20
2022-08-30T00:44:16.190Z,2.40
2022-08-30T00:45:16.170Z,2.00
2022-08-30T00:46:16.233Z,1.80
2022-08-30T00:47:16.161Z,2.60
2022-08-30T00:48:16.140Z,2.00
2022-08-30T00:49:16.118Z,2.00
2022-08-30T00:50:16.112Z,2.40
2022-08-30T00:51:16.101Z,2.10
2022-08-30T00:52:16.078Z,2.20
2022-08-30T00:53:16.224Z,2.40
2022-08-30T00:54:16.060Z,2.20
2022-08-30T00:55:16.039Z,2.20
2022-08-30T00:56:16.050Z,2.20
2022-08-30T00:57:16.011Z,2.30
2022-08-30T00:58:15.998Z,2.40
2022-08-30T00:59:15.996Z,2.00
2022-08-30T01:00:15.979Z,2.10
2022-08-30T01:01:16.027Z,2.60
2022-08-30T01:02:15.982Z,2.10
2022-08-30T01:03:16.117Z,2.20
2022-08-30T01:04:15.938Z,2.20
2022-08-30T01:05:16.198Z,2.50
2022-08-30T01:06:15.919Z,2.50
2022-08-30T01:07:15.888Z,2.30
2022-08-30T01:08:15.887Z,2.10
2022-08-30T01:09:15.865Z,2.30
2022-08-30T01:10:15.856Z,2.30
2022-08-30T01:11:15.850Z,2.30
2022-08-30T01:12:15.818Z,1.90
2022-08-30T01:13:15.935Z,1.90
2022-08-30T01:14:15.806Z,2.30
2022-08-30T01:15:15.785Z,2.00
2022-08-30T01:16:15.870Z,2.20
2022-08-30T01:17:15.757Z,1.70
2022-08-30T01:18:15.747Z,2.30
2022-08-30T01:19:15.735Z,2.00
2022-08-30T01:20:15.727Z,1.90
2022-08-30T01:21:15.724Z,1.90
2022-08-30T01:22:15.697Z,2.10
2022-08-30T01:23:15.852Z,2.10
2022-08-30T01:24:15.679Z,2.00
2022-08-30T01:25:15.647Z,2.00
2022-08-30T01:26:15.865Z,2.00
2022-08-30T01:27:15.625Z,2.30
2022-08-30T01:28:15.617Z,2.10
2022-08-30T01:29:15.599Z,2.00
2022-08-30T01:30:15.585Z,1.80
2022-08-30T01:31:15.639Z,2.20
2022-08-30T01:32:18.689Z,2.10
2022-08-30T01:33:16.667Z,1.80
2022-08-30T01:34:15.552Z,2.00
2022-08-30T01:35:15.524Z,2.20
2022-08-30T01:36:15.524Z,2.00
2022-08-30T01:37:15.504Z,1.80
2022-08-30T01:38:15.496Z,2.00
2022-08-30T01:39:15.477Z,2.00
2022-08-30T01:40:15.530Z,1.80
2022-08-30T01:41:15.462Z,1.90
2022-08-30T01:42:15.445Z,1.90
2022-08-30T01:43:15.592Z,1.90
2022-08-30T01:44:15.417Z,1.90
2022-08-30T01:45:15.395Z,2.60
2022-08-30T01:46:15.453Z,1.70
2022-08-30T01:47:15.365Z,1.90
2022-08-30T01:48:15.365Z,1.80
2022-08-30T01:49:15.345Z,1.90
2022-08-30T01:50:15.344Z,1.80
2022-08-30T01:51:15.333Z,1.90
2022-08-30T01:52:15.313Z,1.90
2022-08-30T01:53:15.385Z,1.90
2022-08-30T01:54:15.285Z,2.20
2022-08-30T01:55:15.263Z,1.70
2022-08-30T01:56:15.275Z,2.10
2022-08-30T01:57:15.243Z,2.00
2022-08-30T01:58:15.232Z,1.70
2022-08-30T01:59:15.214Z,1.90
2022-08-30T02:00:15.205Z,2.00
2022-08-30T02:01:15.264Z,2.20
2022-08-30T02:02:15.186Z,1.70
2022-08-30T02:03:15.428Z,1.70
2022-08-30T02:04:15.231Z,1.90
2022-08-30T02:05:15.140Z,1.90
2022-08-30T02:06:15.141Z,1.80
2022-08-30T02:07:15.115Z,1.50
2022-08-30T02:08:15.101Z,2.00
2022-08-30T02:09:15.094Z,1.90
2022-08-30T02:10:15.076Z,1.80
2022-08-30T02:11:15.071Z,1.50
2022-08-30T02:12:15.063Z,1.70
2022-08-30T02:13:15.248Z,1.70
2022-08-30T02:14:15.022Z,1.80
2022-08-30T02:15:15.012Z,1.80
2022-08-30T02:16:15.060Z,2.00
2022-08-30T02:17:14.999Z,1.90
2022-08-30T02:18:14.972Z,1.90
2022-08-30T02:19:14.971Z,2.10
2022-08-30T02:20:14.952Z,1.90
2022-08-30T02:21:14.949Z,1.70
2022-08-30T02:22:14.921Z,2.00
2022-08-30T02:23:14.904Z,1.90
2022-08-30T02:24:14.892Z,1.90
2022-08-30T02:25:20.727Z,1.90
2022-08-30T02:26:15.873Z,1.90
2022-08-30T02:27:14.851Z,2.10
2022-08-30T02:28:15.046Z,1.90
2022-08-30T02:29:14.842Z,1.90
2022-08-30T02:30:14.828Z,1.70
2022-08-30T02:31:14.879Z,1.90
2022-08-30T02:32:14.793Z,1.80
2022-08-30T02:33:14.882Z,1.80
2022-08-30T02:34:14.771Z,1.90
2022-08-30T02:35:14.749Z,1.90
2022-08-30T02:36:14.749Z,2.00
2022-08-30T02:37:14.733Z,1.80
2022-08-30T02:38:14.721Z,1.90
2022-08-30T02:39:14.711Z,1.90
2022-08-30T02:40:14.722Z,1.90
2022-08-30T02:41:14.688Z,1.50
2022-08-30T02:42:14.659Z,1.90
2022-08-30T02:43:14.723Z,2.10
2022-08-30T02:44:14.639Z,2.00
2022-08-30T02:45:14.630Z,1.80
2022-08-30T02:46:14.661Z,1.60
2022-08-30T02:47:14.589Z,1.70
2022-08-30T02:48:14.579Z,1.90
2022-08-30T02:50:15.560Z,1.70
2022-08-30T02:51:14.583Z,1.70
2022-08-30T02:52:14.527Z,1.80
2022-08-30T02:53:16.218Z,1.60
2022-08-30T02:54:14.510Z,1.60
2022-08-30T02:55:14.487Z,1.70
2022-08-30T02:56:14.488Z,1.60
2022-08-30T02:57:20.256Z,1.80
2022-08-30T02:58:15.455Z,2.20
2022-08-30T02:59:14.457Z,1.70
2022-08-30T03:00:14.427Z,2.00
2022-08-30T03:01:14.487Z,1.90
2022-08-30T03:02:14.396Z,1.80
2022-08-30T03:03:14.466Z,1.90
2022-08-30T03:04:14.389Z,1.80
2022-08-30T03:05:14.369Z,1.90
2022-08-30T03:06:14.358Z,1.60
2022-08-30T03:07:14.338Z,1.70
2022-08-30T03:08:14.317Z,2.10
2022-08-30T03:09:14.318Z,1.80
2022-08-30T03:10:14.296Z,2.00
2022-08-30T03:11:14.310Z,2.20
2022-08-30T03:12:14.276Z,1.80
2022-08-30T03:13:14.266Z,2.10
2022-08-30T03:14:14.246Z,1.90
2022-08-30T03:15:14.249Z,1.70
2022-08-30T03:16:14.254Z,2.10
2022-08-30T03:17:15.517Z,1.70
2022-08-30T03:18:14.197Z,1.90
2022-08-30T03:19:14.184Z,2.00
2022-08-30T03:20:14.164Z,1.70
2022-08-30T03:21:14.164Z,1.50
2022-08-30T03:22:14.140Z,2.00
2022-08-30T03:23:21.845Z,1.90
2022-08-30T03:24:15.114Z,1.90
2022-08-30T03:25:14.107Z,2.20
2022-08-30T03:26:14.104Z,2.00
2022-08-30T03:27:14.087Z,2.00
2022-08-30T03:28:14.071Z,2.00
2022-08-30T03:29:14.057Z,2.10
2022-08-30T03:30:14.035Z,1.90
2022-08-30T03:31:14.099Z,1.80
2022-08-30T03:32:14.018Z,2.00
2022-08-30T03:33:13.994Z,1.90
2022-08-30T03:34:13.983Z,2.00
2022-08-30T03:35:13.983Z,2.00
2022-08-30T03:36:13.974Z,2.30
2022-08-30T03:37:13.953Z,2.00
2022-08-30T03:38:13.932Z,2.30
2022-08-30T03:39:14.110Z,2.00
2022-08-30T03:40:13.942Z,2.00
2022-08-30T03:41:13.912Z,2.30
2022-08-30T03:42:13.884Z,2.20
2022-08-30T03:43:13.880Z,2.20
2022-08-30T03:44:13.855Z,2.00
2022-08-30T03:45:13.843Z,2.10
2022-08-30T03:46:13.924Z,2.30
2022-08-30T03:47:13.831Z,2.10
2022-08-30T03:48:13.802Z,1.80
2022-08-30T03:49:13.793Z,2.60
2022-08-30T03:50:13.772Z,2.40
2022-08-30T03:51:13.782Z,2.20
2022-08-30T03:52:13.759Z,2.10
2022-08-30T03:53:13.804Z,2.60
2022-08-30T03:54:13.725Z,2.30
2022-08-30T03:55:13.722Z,2.00
2022-08-30T03:56:13.723Z,2.30
2022-08-30T03:57:19.964Z,2.50
2022-08-30T03:58:14.673Z,2.50
2022-08-30T03:59:13.663Z,2.10
2022-08-30T04:00:13.656Z,2.40
2022-08-30T04:01:13.685Z,2.50
2022-08-30T04:02:13.683Z,2.90
2022-08-30T04:03:13.663Z,2.50
2022-08-30T04:04:17.386Z,2.50
2022-08-30T04:05:14.761Z,2.30
2022-08-30T04:06:13.582Z,2.60
2022-08-30T04:07:13.561Z,2.50
2022-08-30T04:08:13.551Z,2.60
2022-08-30T04:09:13.542Z,2.80
2022-08-30T04:10:13.519Z,2.50
2022-08-30T04:11:13.528Z,2.60
2022-08-30T04:12:13.493Z,2.30
2022-08-30T04:13:13.523Z,2.40
2022-08-30T04:14:13.481Z,2.30
2022-08-30T04:15:13.481Z,2.50
2022-08-30T04:16:13.481Z,2.40
2022-08-30T04:17:13.428Z,2.20
2022-08-30T04:18:13.431Z,2.50
2022-08-30T04:19:13.409Z,2.60
2022-08-30T04:20:13.389Z,2.50
2022-08-30T04:21:14.246Z,2.70
2022-08-30T04:22:13.367Z,2.50
2022-08-30T04:23:13.464Z,3.20
2022-08-30T04:24:13.341Z,2.70
2022-08-30T04:25:15.535Z,2.60
2022-08-30T04:26:13.318Z,2.50
2022-08-30T04:27:13.310Z,2.50
2022-08-30T04:28:13.299Z,2.60
2022-08-30T04:29:13.278Z,3.00
2022-08-30T04:30:13.259Z,2.50
2022-08-30T04:31:13.329Z,2.30
2022-08-30T04:32:13.239Z,2.40
2022-08-30T04:33:13.286Z,2.60
2022-08-30T04:34:13.207Z,2.50
2022-08-30T04:35:13.218Z,2.60
2022-08-30T04:36:13.195Z,2.50
2022-08-30T04:37:13.187Z,2.70
2022-08-30T04:38:13.157Z,3.00
2022-08-30T04:39:13.155Z,2.40
2022-08-30T04:40:13.205Z,2.50
2022-08-30T04:41:13.138Z,2.60
2022-08-30T04:42:13.106Z,2.30
2022-08-30T04:43:13.333Z,2.30
2022-08-30T04:44:16.766Z,2.90
2022-08-30T04:45:14.086Z,2.70
2022-08-30T04:46:13.116Z,3.00
2022-08-30T04:47:13.047Z,3.20
2022-08-30T04:48:13.027Z,2.50
2022-08-30T04:49:13.026Z,2.90
2022-08-30T04:50:13.011Z,2.60
2022-08-30T04:51:13.018Z,2.80
2022-08-30T04:52:12.978Z,2.90
2022-08-30T04:53:13.027Z,2.80
2022-08-30T04:54:12.954Z,2.70
2022-08-30T04:55:16.746Z,2.70
2022-08-30T04:56:13.936Z,3.30
2022-08-30T04:57:12.912Z,3.00
2022-08-30T04:58:12.895Z,2.90
2022-08-30T04:59:12.897Z,3.30
2022-08-30T05:00:12.874Z,3.50
2022-08-30T05:01:12.960Z,2.90
2022-08-30T05:02:14.887Z,3.50
2022-08-30T05:03:12.861Z,3.20
2022-08-30T05:04:12.834Z,2.80
2022-08-30T05:05:14.196Z,3.00
2022-08-30T05:06:12.813Z,2.60
2022-08-30T05:07:12.796Z,3.10
2022-08-30T05:08:12.812Z,2.90
2022-08-30T05:09:12.764Z,2.80
2022-08-30T05:10:12.744Z,2.50
2022-08-30T05:11:12.742Z,3.10
2022-08-30T05:12:12.722Z,3.00
2022-08-30T05:13:12.834Z,2.90
2022-08-30T05:14:12.693Z,3.20
2022-08-30T05:15:12.685Z,2.70
2022-08-30T05:16:12.738Z,3.00
2022-08-30T05:17:12.665Z,2.90
2022-08-30T05:18:13.400Z,2.80
2022-08-30T05:19:12.637Z,2.70
2022-08-30T05:20:12.613Z,3.00
2022-08-30T05:21:12.624Z,3.10
2022-08-30T05:22:12.592Z,3.20
2022-08-30T05:23:12.651Z,3.40
2022-08-30T05:24:12.572Z,3.30
2022-08-30T05:25:14.641Z,2.90
2022-08-30T05:26:12.551Z,3.50
2022-08-30T05:27:12.534Z,3.00
2022-08-30T05:28:12.520Z,2.80
2022-08-30T05:29:12.513Z,2.70
2022-08-30T05:30:12.497Z,3.20
2022-08-30T05:31:14.049Z,3.20
2022-08-30T05:32:12.464Z,2.70
2022-08-30T05:33:12.450Z,3.00
2022-08-30T05:34:12.438Z,3.10
2022-08-30T05:35:12.430Z,2.90
2022-08-30T05:36:12.419Z,3.20
2022-08-30T05:37:12.401Z,3.10
2022-08-30T05:38:12.409Z,3.10
2022-08-30T05:39:12.384Z,2.90
2022-08-30T05:40:12.420Z,2.90
2022-08-30T05:41:12.375Z,3.40
2022-08-30T05:42:12.339Z,2.90
2022-08-30T05:43:12.321Z,3.00
2022-08-30T05:44:12.307Z,3.10
2022-08-30T05:45:12.300Z,3.20
2022-08-30T05:46:12.394Z,3.20
2022-08-30T05:47:12.284Z,3.20
2022-08-30T05:48:12.999Z,3.10
2022-08-30T05:49:12.249Z,3.00
2022-08-30T05:50:12.233Z,3.20
2022-08-30T05:51:12.239Z,2.90
2022-08-30T05:52:12.208Z,3.10
2022-08-30T05:53:12.201Z,3.70
2022-08-30T05:54:12.183Z,3.10
2022-08-30T05:55:12.170Z,3.20
2022-08-30T05:56:12.166Z,3.00
2022-08-30T05:57:12.146Z,3.70
2022-08-30T05:58:12.126Z,3.00
2022-08-30T05:59:12.108Z,3.30
2022-08-30T06:00:12.112Z,3.40
2022-08-30T06:01:12.097Z,3.60
2022-08-30T06:02:12.164Z,3.00
2022-08-30T06:03:12.154Z,3.30
2022-08-30T06:04:12.057Z,3.60
2022-08-30T06:05:13.048Z,3.50
2022-08-30T06:06:12.037Z,3.30
2022-08-30T06:07:14.866Z,3.50
2022-08-30T06:08:11.996Z,3.70
2022-08-30T06:09:11.993Z,3.70
2022-08-30T06:10:11.977Z,3.40
2022-08-30T06:11:11.979Z,3.10
2022-08-30T06:12:11.964Z,3.30
2022-08-30T06:13:11.938Z,3.20
2022-08-30T06:14:11.927Z,3.10
2022-08-30T06:15:11.907Z,3.40
2022-08-30T06:16:11.996Z,3.50
2022-08-30T06:17:11.877Z,3.20
2022-08-30T06:18:11.884Z,3.40
2022-08-30T06:19:11.855Z,3.30
2022-08-30T06:20:11.845Z,3.10
2022-08-30T06:21:15.077Z,3.10
2022-08-30T06:22:11.824Z,3.60
2022-08-30T06:23:11.804Z,3.10
2022-08-30T06:24:11.797Z,3.50
2022-08-30T06:25:11.777Z,3.30
2022-08-30T06:26:11.774Z,3.50
2022-08-30T06:27:11.757Z,3.60
2022-08-30T06:28:11.740Z,3.60
2022-08-30T06:29:11.730Z,3.50
2022-08-30T06:30:11.723Z,3.00
2022-08-30T06:31:11.764Z,3.30
2022-08-30T06:32:11.695Z,3.70
2022-08-30T06:33:11.694Z,3.80
2022-08-30T06:34:11.664Z,3.30
2022-08-30T06:35:11.656Z,3.20
2022-08-30T06:36:11.649Z,4.30
2022-08-30T06:37:11.622Z,3.40
2022-08-30T06:38:11.611Z,3.70
2022-08-30T06:39:11.593Z,3.70
2022-08-30T06:40:11.637Z,4.20
2022-08-30T06:41:11.592Z,3.90
2022-08-30T06:42:11.562Z,3.70
2022-08-30T06:43:11.554Z,4.00
2022-08-30T06:44:11.533Z,4.00
2022-08-30T06:45:11.536Z,3.70
2022-08-30T06:46:11.571Z,3.50
2022-08-30T06:47:11.493Z,3.50
2022-08-30T06:48:11.508Z,3.80
2022-08-30T06:49:11.496Z,3.70
2022-08-30T06:50:12.031Z,3.60
2022-08-30T06:51:11.462Z,3.60
2022-08-30T06:52:11.431Z,3.60
2022-08-30T06:53:11.424Z,3.80
2022-08-30T06:54:12.039Z,3.50
2022-08-30T06:55:11.395Z,3.50
2022-08-30T06:56:11.400Z,3.60
2022-08-30T06:57:11.377Z,3.30
2022-08-30T06:58:11.353Z,3.20
2022-08-30T06:59:11.352Z,3.60
2022-08-30T07:00:11.330Z,3.80
2022-08-30T07:01:11.354Z,3.40
2022-08-30T07:02:11.365Z,3.60
2022-08-30T07:03:11.323Z,3.60
2022-08-30T07:04:11.284Z,4.00
2022-08-30T07:05:14.189Z,3.70
2022-08-30T07:06:12.268Z,3.50
2022-08-30T07:07:11.239Z,3.90
2022-08-30T07:08:11.240Z,3.60
2022-08-30T07:09:11.222Z,3.70
2022-08-30T07:10:11.203Z,3.30
2022-08-30T07:11:11.207Z,3.40
2022-08-30T07:12:11.178Z,3.80
2022-08-30T07:13:11.177Z,3.80
2022-08-30T07:14:11.149Z,3.50
2022-08-30T07:15:11.143Z,3.60
2022-08-30T07:16:11.172Z,3.30
2022-08-30T07:17:11.128Z,3.30
2022-08-30T07:18:11.099Z,3.70
2022-08-30T07:19:18.605Z,3.60
2022-08-30T07:20:12.067Z,2.90
2022-08-30T07:21:11.078Z,3.20
2022-08-30T07:22:11.048Z,3.20
2022-08-30T07:23:11.039Z,3.40
2022-08-30T07:24:11.019Z,3.70
2022-08-30T07:25:11.020Z,3.30
2022-08-30T07:26:11.014Z,3.20
2022-08-30T07:27:10.978Z,3.80
2022-08-30T07:28:10.968Z,3.30
2022-08-30T07:29:10.972Z,3.90
2022-08-30T07:30:10.947Z,3.40
2022-08-30T07:31:10.950Z,3.80
2022-08-30T07:32:10.922Z,3.10
2022-08-30T07:33:10.906Z,3.80
2022-08-30T07:34:10.898Z,3.50
2022-08-30T07:35:10.881Z,3.70
2022-08-30T07:36:10.876Z,3.10
2022-08-30T07:37:10.866Z,3.20
2022-08-30T07:38:11.837Z,3.30
2022-08-30T07:39:10.838Z,3.50
2022-08-30T07:40:10.855Z,3.30
2022-08-30T07:41:10.815Z,3.30
2022-08-30T07:42:10.787Z,3.10
2022-08-30T07:43:10.782Z,3.40
2022-08-30T07:44:10.764Z,3.50
2022-08-30T07:45:10.755Z,3.40
2022-08-30T07:46:10.878Z,3.70
2022-08-30T07:47:10.754Z,3.60
2022-08-30T07:48:10.709Z,3.30
2022-08-30T07:49:11.260Z,3.40
2022-08-30T07:50:10.696Z,3.20
2022-08-30T07:51:10.686Z,3.60
2022-08-30T07:52:10.655Z,2.70
2022-08-30T07:53:11.326Z,3.60
2022-08-30T07:54:10.639Z,3.30
2022-08-30T07:55:10.625Z,3.20
2022-08-30T07:56:10.614Z,3.40
2022-08-30T07:57:10.597Z,3.10
2022-08-30T07:58:10.585Z,3.10
2022-08-30T07:59:10.577Z,2.60
2022-08-30T08:00:10.554Z,3.00
2022-08-30T08:01:10.580Z,2.70
2022-08-30T08:02:10.534Z,2.50
2022-08-30T08:03:10.527Z,2.70
2022-08-30T08:04:10.505Z,2.50
2022-08-30T08:05:13.944Z,2.70
2022-08-30T08:06:11.515Z,2.50
2022-08-30T08:07:10.464Z,2.40
2022-08-30T08:08:10.455Z,2.50
2022-08-30T08:09:10.453Z,2.60
2022-08-30T08:10:10.425Z,3.00
2022-08-30T08:11:10.443Z,2.80
2022-08-30T08:12:11.404Z,2.90
2022-08-30T08:13:10.384Z,2.50
2022-08-30T08:14:10.421Z,2.50
2022-08-30T08:15:10.366Z,2.50
2022-08-30T08:16:10.386Z,2.80
2022-08-30T08:17:10.341Z,2.70
2022-08-30T08:18:10.322Z,2.20
2022-08-30T08:19:10.313Z,2.50
2022-08-30T08:20:10.304Z,2.50
2022-08-30T08:21:10.324Z,2.50
2022-08-30T08:22:20.621Z,2.50
2022-08-30T08:23:11.263Z,2.20
2022-08-30T08:24:10.242Z,2.40
2022-08-30T08:25:10.232Z,2.30
2022-08-30T08:26:10.233Z,2.10
2022-08-30T08:27:10.213Z,2.10
2022-08-30T08:28:10.193Z,2.50
2022-08-30T08:29:10.193Z,3.40
2022-08-30T08:30:10.180Z,2.40
2022-08-30T08:31:10.202Z,2.20
2022-08-30T08:32:10.142Z,2.10
2022-08-30T08:33:10.141Z,1.70
2022-08-30T08:34:10.122Z,2.30
2022-08-30T08:35:10.113Z,2.10
2022-08-30T08:36:10.111Z,2.10
2022-08-30T08:37:10.082Z,2.30
2022-08-30T08:38:10.076Z,2.20
2022-08-30T08:39:10.099Z,2.10
2022-08-30T08:40:10.135Z,2.30
2022-08-30T08:41:10.042Z,2.10
2022-08-30T08:42:10.010Z,2.40
2022-08-30T08:43:10.023Z,2.30
2022-08-30T08:44:09.982Z,1.80
2022-08-30T08:45:11.554Z,2.10
2022-08-30T08:46:10.024Z,2.10
2022-08-30T08:47:09.950Z,2.30
2022-08-30T08:48:10.000Z,2.10
2022-08-30T08:49:09.928Z,2.30
2022-08-30T08:50:09.914Z,2.20
2022-08-30T08:51:09.932Z,2.20
2022-08-30T08:52:09.881Z,2.10
2022-08-30T08:53:13.371Z,1.90
2022-08-30T08:54:10.860Z,2.30
2022-08-30T08:55:09.859Z,2.30
2022-08-30T08:56:10.561Z,2.00
2022-08-30T08:57:12.395Z,2.10
2022-08-30T08:58:09.855Z,2.20
2022-08-30T08:59:09.801Z,2.30
2022-08-30T09:00:09.791Z,2.20
2022-08-30T09:01:09.822Z,2.30
2022-08-30T09:02:09.779Z,2.20
2022-08-30T09:03:09.751Z,2.00
2022-08-30T09:04:09.731Z,2.00
2022-08-30T09:05:09.775Z,2.20
2022-08-30T09:06:09.721Z,2.20
2022-08-30T09:07:09.693Z,2.20
2022-08-30T09:08:10.244Z,2.10
2022-08-30T09:09:09.669Z,2.30
2022-08-30T09:10:09.659Z,2.20
2022-08-30T09:11:09.660Z,2.20
2022-08-30T09:12:09.649Z,2.30
2022-08-30T09:13:13.517Z,2.20
2022-08-30T09:14:09.609Z,2.40
2022-08-30T09:15:09.589Z,2.20
2022-08-30T09:16:09.678Z,2.40
2022-08-30T09:17:10.588Z,2.50
2022-08-30T09:18:10.188Z,2.50
2022-08-30T09:19:10.538Z,2.10
2022-08-30T09:20:09.530Z,2.30
2022-08-30T09:21:09.561Z,2.30
2022-08-30T09:22:09.509Z,2.00
2022-08-30T09:23:09.499Z,2.40
2022-08-30T09:24:09.469Z,2.10
2022-08-30T09:25:09.468Z,2.10
2022-08-30T09:26:09.468Z,2.10
2022-08-30T09:27:09.439Z,1.80
2022-08-30T09:28:09.568Z,1.90
2022-08-30T09:29:09.409Z,2.00
2022-08-30T09:30:11.282Z,1.90
2022-08-30T09:31:12.489Z,2.20
2022-08-30T09:32:25.200Z,1.90
2022-08-30T09:33:10.359Z,2.00
2022-08-30T09:34:09.351Z,1.80
2022-08-30T09:35:09.329Z,2.20
2022-08-30T09:36:09.338Z,2.20
2022-08-30T09:37:09.308Z,2.20
2022-08-30T09:38:09.292Z,1.80
2022-08-30T09:39:09.278Z,1.80
2022-08-30T09:40:09.293Z,2.20
2022-08-30T09:41:09.267Z,1.90
2022-08-30T09:42:09.239Z,2.10
2022-08-30T09:43:09.228Z,1.90
2022-08-30T09:44:09.218Z,2.00
2022-08-30T09:45:09.218Z,2.20
2022-08-30T09:46:09.284Z,2.40
2022-08-30T09:47:09.177Z,2.80
2022-08-30T09:48:09.199Z,2.30
2022-08-30T09:49:09.162Z,1.70
2022-08-30T09:50:09.155Z,2.20
2022-08-30T09:51:09.137Z,2.40
2022-08-30T09:52:09.117Z,2.00
2022-08-30T09:53:09.107Z,2.00
2022-08-30T09:54:24.339Z,2.20
2022-08-30T09:55:10.077Z,2.00
2022-08-30T09:56:10.082Z,2.00
2022-08-30T09:57:11.736Z,1.90
2022-08-30T09:58:09.038Z,1.80
2022-08-30T09:59:09.028Z,1.80
2022-08-30T10:00:09.046Z,1.80
2022-08-30T10:01:09.099Z,2.30
2022-08-30T10:02:09.039Z,1.90
2022-08-30T10:03:08.975Z,1.60
2022-08-30T10:04:08.967Z,2.00
2022-08-30T10:05:08.950Z,2.30
2022-08-30T10:06:09.077Z,2.20
2022-08-30T10:07:08.986Z,2.10
2022-08-30T10:08:08.987Z,1.80
2022-08-30T10:09:08.994Z,1.80
2022-08-30T10:10:08.916Z,1.90
2022-08-30T10:11:08.889Z,1.70
2022-08-30T10:12:08.876Z,1.80
2022-08-30T10:13:08.869Z,2.00
2022-08-30T10:14:08.857Z,2.10
2022-08-30T10:15:08.829Z,1.60
2022-08-30T10:16:08.816Z,1.70
2022-08-30T10:17:08.796Z,1.90
2022-08-30T10:18:08.791Z,1.70
2022-08-30T10:19:08.766Z,1.90
2022-08-30T10:20:08.766Z,1.70
2022-08-30T10:21:08.766Z,2.30
2022-08-30T10:22:08.737Z,1.80
2022-08-30T10:23:08.727Z,1.50
2022-08-30T10:24:08.729Z,1.60
2022-08-30T10:25:08.688Z,1.90
2022-08-30T10:26:08.697Z,1.70
2022-08-30T10:27:09.406Z,1.50
2022-08-30T10:28:08.655Z,1.90
2022-08-30T10:29:08.637Z,1.90
2022-08-30T10:30:08.646Z,1.80
2022-08-30T10:31:08.616Z,1.70
2022-08-30T10:32:08.607Z,2.00
2022-08-30T10:33:08.588Z,1.80
2022-08-30T10:34:08.585Z,1.70
2022-08-30T10:35:08.569Z,1.70
2022-08-30T10:36:10.309Z,1.90
2022-08-30T10:37:08.525Z,1.80
2022-08-30T10:38:08.529Z,1.40
2022-08-30T10:39:08.514Z,1.50
2022-08-30T10:40:08.528Z,1.50
2022-08-30T10:41:08.497Z,1.80
2022-08-30T10:42:08.475Z,1.70
2022-08-30T10:43:08.463Z,1.60
2022-08-30T10:44:08.445Z,1.50
2022-08-30T10:45:08.435Z,1.50
2022-08-30T10:46:08.436Z,1.50
2022-08-30T10:47:08.405Z,1.60
2022-08-30T10:48:08.395Z,1.50
2022-08-30T10:49:08.420Z,1.50
2022-08-30T10:50:08.364Z,1.40
2022-08-30T10:51:08.365Z,1.60
2022-08-30T10:52:08.338Z,1.40
2022-08-30T10:53:08.336Z,1.50
2022-08-30T10:54:08.315Z,1.40
2022-08-30T10:55:08.308Z,1.50
2022-08-30T10:56:08.296Z,1.30
2022-08-30T10:57:08.284Z,1.50
2022-08-30T10:58:08.257Z,1.70
2022-08-30T10:59:08.246Z,1.40
2022-08-30T11:00:08.248Z,1.60
2022-08-30T11:01:08.264Z,1.40
2022-08-30T11:02:08.234Z,1.00
2022-08-30T11:03:08.218Z,1.20
2022-08-30T11:04:08.186Z,1.10
2022-08-30T11:05:09.176Z,1.30
2022-08-30T11:06:08.175Z,1.30
2022-08-30T11:07:10.074Z,1.70
2022-08-30T11:08:08.135Z,1.60
2022-08-30T11:09:09.136Z,1.40
2022-08-30T11:10:08.105Z,1.50
2022-08-30T11:11:12.930Z,1.40
2022-08-30T11:12:09.077Z,1.20
2022-08-30T11:13:08.085Z,1.30
2022-08-30T11:14:08.065Z,1.60
2022-08-30T11:15:08.059Z,1.80
2022-08-30T11:16:08.044Z,1.30
2022-08-30T11:17:08.026Z,1.60
2022-08-30T11:18:08.013Z,1.40
2022-08-30T11:19:07.995Z,1.30
2022-08-30T11:20:08.000Z,1.40
2022-08-30T11:21:12.355Z,1.30
2022-08-30T11:22:08.958Z,1.30
2022-08-30T11:23:07.945Z,1.30
2022-08-30T11:24:11.363Z,1.50
2022-08-30T11:25:10.195Z,1.30
2022-08-30T11:26:07.923Z,1.50
2022-08-30T11:27:07.905Z,1.40
2022-08-30T11:28:07.884Z,1.40
2022-08-30T11:29:07.877Z,1.30
2022-08-30T11:30:07.923Z,1.30
2022-08-30T11:31:07.865Z,1.20
2022-08-30T11:32:07.835Z,1.50
2022-08-30T11:33:09.452Z,1.30
2022-08-30T11:34:08.808Z,1.40
2022-08-30T11:35:07.803Z,1.30
2022-08-30T11:36:07.804Z,1.40
2022-08-30T11:37:09.636Z,1.50
2022-08-30T11:38:07.754Z,1.60
2022-08-30T11:39:07.766Z,1.50
2022-08-30T11:40:07.739Z,1.20
2022-08-30T11:41:09.521Z,1.20
2022-08-30T11:42:07.708Z,1.60
2022-08-30T11:43:07.695Z,1.20
2022-08-30T11:44:07.685Z,1.30
2022-08-30T11:45:07.677Z,1.40
2022-08-30T11:46:11.386Z,1.40
2022-08-30T11:47:08.635Z,1.40
2022-08-30T11:48:07.633Z,1.30
2022-08-30T11:49:07.614Z,1.50
2022-08-30T11:50:10.944Z,1.60
2022-08-30T11:51:07.605Z,1.50
2022-08-30T11:52:27.221Z,1.50
2022-08-30T11:53:08.564Z,1.20
2022-08-30T11:54:07.563Z,1.30
2022-08-30T11:55:07.534Z,1.50
2022-08-30T11:56:07.544Z,1.60
2022-08-30T11:57:07.515Z,1.30
2022-08-30T11:58:07.495Z,1.50
2022-08-30T11:59:07.484Z,1.30
2022-08-30T12:00:07.492Z,1.40
2022-08-30T12:01:09.995Z,1.40
2022-08-30T12:02:08.561Z,1.30
2022-08-30T12:03:07.573Z,1.10
2022-08-30T12:04:07.424Z,1.20
2022-08-30T12:05:07.418Z,1.50
2022-08-30T12:06:07.424Z,1.20
2022-08-30T12:07:07.384Z,1.10
2022-08-30T12:08:07.376Z,1.30
2022-08-30T12:09:08.411Z,1.30
2022-08-30T12:10:07.357Z,1.40
2022-08-30T12:11:07.344Z,1.40
2022-08-30T12:12:07.324Z,1.40
2022-08-30T12:13:07.305Z,1.60
2022-08-30T12:14:09.420Z,1.30
2022-08-30T12:15:07.294Z,1.10
2022-08-30T12:16:07.320Z,1.50
2022-08-30T12:17:07.255Z,1.50
2022-08-30T12:18:07.244Z,1.90
2022-08-30T12:19:08.228Z,1.20
2022-08-30T12:20:07.234Z,1.50
2022-08-30T12:21:07.765Z,1.40
2022-08-30T12:22:07.255Z,1.50
2022-08-30T12:23:07.184Z,1.50
2022-08-30T12:24:07.182Z,1.60
2022-08-30T12:25:07.154Z,1.70
2022-08-30T12:26:07.164Z,1.50
2022-08-30T12:27:07.145Z,1.40
2022-08-30T12:28:07.117Z,1.50
2022-08-30T12:29:07.105Z,1.80
2022-08-30T12:30:07.094Z,1.60
2022-08-30T12:31:07.097Z,1.30
2022-08-30T12:32:07.089Z,1.50
2022-08-30T12:33:07.062Z,1.60
2022-08-30T12:34:07.044Z,1.40
2022-08-30T12:35:07.044Z,1.40
2022-08-30T12:36:07.050Z,1.50
2022-08-30T12:37:07.008Z,1.50
2022-08-30T12:38:07.004Z,1.70
2022-08-30T12:39:06.984Z,1.50
2022-08-30T12:40:07.073Z,1.40
2022-08-30T12:41:06.965Z,1.40
2022-08-30T12:42:06.944Z,1.60
2022-08-30T12:43:07.873Z,1.40
2022-08-30T12:44:06.932Z,1.40
2022-08-30T12:45:06.913Z,1.30
2022-08-30T12:46:07.412Z,1.40
2022-08-30T12:47:06.875Z,1.30
2022-08-30T12:48:06.957Z,1.10
2022-08-30T12:49:06.855Z,1.40
2022-08-30T12:50:06.856Z,1.60
2022-08-30T12:51:07.844Z,1.30
2022-08-30T12:52:06.816Z,1.50
2022-08-30T12:53:09.351Z,1.50
2022-08-30T12:54:07.812Z,1.50
2022-08-30T12:55:17.671Z,1.20
2022-08-30T12:56:07.785Z,1.80
2022-08-30T12:57:25.695Z,1.50
2022-08-30T12:58:07.745Z,1.50
2022-08-30T12:59:06.735Z,1.50
2022-08-30T13:00:06.725Z,1.70
2022-08-30T13:01:06.860Z,1.60
2022-08-30T13:02:06.846Z,1.50
2022-08-30T13:03:16.315Z,1.40
2022-08-30T13:04:07.683Z,1.50
2022-08-30T13:05:06.657Z,1.40
2022-08-30T13:06:06.663Z,1.70
2022-08-30T13:07:06.654Z,1.50
2022-08-30T13:08:06.624Z,1.50
2022-08-30T13:09:06.605Z,1.50
2022-08-30T13:10:06.601Z,1.50
2022-08-30T13:11:08.557Z,1.40
2022-08-30T13:12:06.596Z,1.30
2022-08-30T13:13:06.557Z,1.60
2022-08-30T13:14:06.545Z,1.40
2022-08-30T13:15:06.535Z,1.50
2022-08-30T13:16:06.611Z,1.60
2022-08-30T13:17:06.505Z,1.30
2022-08-30T13:18:06.516Z,1.40
2022-08-30T13:19:06.485Z,1.50